sensor_id;sensor_type;location;lat;lon;timestamp;P1;durP1;ratioP1;P2;durP2;ratioP2
35442;SDS011;21561;55.654;37.592;2022-08-21T00:01:49;71.75;;;41.65;;
35442;SDS011;21561;55.654;37.592;2022-08-21T00:04:16;68.18;;;41.03;;
35442;SDS011;21561;55.654;37.592;2022-08-21T00:06:48;67.97;;;41.93;;
35442;SDS011;21561;55.654;37.592;2022-08-21T00:09:19;70.63;;;40.92;;
35442;SDS011;21561;55.654;37.592;2022-08-21T00:11:46;66.03;;;40.25;;
35442;SDS011;21561;55.654;37.592;2022-08-21T00:14:14;64.55;;;40.22;;
35442;SDS011;21561;55.654;37.592;2022-08-21T00:16:42;63.13;;;40.30;;
35442;SDS011;21561;55.654;37.592;2022-08-21T00:19:09;66.05;;;41.65;;
35442;SDS011;21561;55.654;37.592;2022-08-21T00:21:36;68.47;;;41.30;;
35442;SDS011;21561;55.654;37.592;2022-08-21T00:24:03;65.95;;;39.50;;
35442;SDS011;21561;55.654;37.592;2022-08-21T00:26:33;70.30;;;40.15;;
35442;SDS011;21561;55.654;37.592;2022-08-21T00:29:02;60.25;;;38.67;;
35442;SDS011;21561;55.654;37.592;2022-08-21T00:31:30;65.50;;;38.33;;
35442;SDS011;21561;55.654;37.592;2022-08-21T00:33:57;65.50;;;39.40;;
35442;SDS011;21561;55.654;37.592;2022-08-21T00:36:26;69.38;;;39.95;;
35442;SDS011;21561;55.654;37.592;2022-08-21T00:38:54;67.65;;;40.92;;
35442;SDS011;21561;55.654;37.592;2022-08-21T00:41:22;63.40;;;39.83;;
35442;SDS011;21561;55.654;37.592;2022-08-21T00:46:31;65.68;;;39.28;;
35442;SDS011;21561;55.654;37.592;2022-08-21T00:48:58;67.90;;;39.00;;
35442;SDS011;21561;55.654;37.592;2022-08-21T00:51:27;64.75;;;40.22;;
35442;SDS011;21561;55.654;37.592;2022-08-21T00:54:04;63.55;;;39.45;;
35442;SDS011;21561;55.654;37.592;2022-08-21T00:56:48;62.33;;;38.10;;
35442;SDS011;21561;55.654;37.592;2022-08-21T00:59:20;69.25;;;38.63;;
35442;SDS011;21561;55.654;37.592;2022-08-21T01:01:48;66.72;;;40.47;;
35442;SDS011;21561;55.654;37.592;2022-08-21T01:04:16;60.30;;;37.40;;
35442;SDS011;21561;55.654;37.592;2022-08-21T01:06:43;61.83;;;38.33;;
35442;SDS011;21561;55.654;37.592;2022-08-21T01:09:11;64.43;;;37.78;;
35442;SDS011;21561;55.654;37.592;2022-08-21T01:11:39;62.42;;;39.50;;
35442;SDS011;21561;55.654;37.592;2022-08-21T01:14:10;62.08;;;38.60;;
35442;SDS011;21561;55.654;37.592;2022-08-21T01:16:40;67.03;;;38.67;;
35442;SDS011;21561;55.654;37.592;2022-08-21T01:19:10;60.53;;;37.75;;
35442;SDS011;21561;55.654;37.592;2022-08-21T01:21:38;63.95;;;38.63;;
35442;SDS011;21561;55.654;37.592;2022-08-21T01:24:05;64.05;;;37.97;;
35442;SDS011;21561;55.654;37.592;2022-08-21T01:26:33;65.43;;;36.58;;
35442;SDS011;21561;55.654;37.592;2022-08-21T01:32:08;63.03;;;37.72;;
35442;SDS011;21561;55.654;37.592;2022-08-21T01:34:38;57.03;;;35.40;;
35442;SDS011;21561;55.654;37.592;2022-08-21T01:37:06;56.05;;;34.60;;
35442;SDS011;21561;55.654;37.592;2022-08-21T01:39:34;65.53;;;35.78;;
35442;SDS011;21561;55.654;37.592;2022-08-21T01:42:02;58.33;;;34.72;;
35442;SDS011;21561;55.654;37.592;2022-08-21T01:44:30;62.47;;;34.97;;
35442;SDS011;21561;55.654;37.592;2022-08-21T01:46:59;58.83;;;36.90;;
35442;SDS011;21561;55.654;37.592;2022-08-21T01:49:27;55.17;;;33.75;;
35442;SDS011;21561;55.654;37.592;2022-08-21T01:51:54;62.22;;;35.20;;
35442;SDS011;21561;55.654;37.592;2022-08-21T01:54:21;56.53;;;32.75;;
35442;SDS011;21561;55.654;37.592;2022-08-21T01:56:50;51.47;;;30.60;;
35442;SDS011;21561;55.654;37.592;2022-08-21T01:59:18;55.42;;;30.98;;
35442;SDS011;21561;55.654;37.592;2022-08-21T02:01:46;59.72;;;31.30;;
35442;SDS011;21561;55.654;37.592;2022-08-21T02:04:13;54.35;;;30.70;;
35442;SDS011;21561;55.654;37.592;2022-08-21T02:06:40;54.72;;;31.13;;
35442;SDS011;21561;55.654;37.592;2022-08-21T02:09:08;55.22;;;31.67;;
35442;SDS011;21561;55.654;37.592;2022-08-21T02:11:36;50.50;;;30.17;;
35442;SDS011;21561;55.654;37.592;2022-08-21T02:14:07;51.10;;;30.10;;
35442;SDS011;21561;55.654;37.592;2022-08-21T02:16:39;56.13;;;31.27;;
35442;SDS011;21561;55.654;37.592;2022-08-21T02:19:09;60.95;;;30.83;;
35442;SDS011;21561;55.654;37.592;2022-08-21T02:21:37;50.47;;;29.92;;
35442;SDS011;21561;55.654;37.592;2022-08-21T02:24:05;49.83;;;28.67;;
35442;SDS011;21561;55.654;37.592;2022-08-21T02:26:32;48.38;;;28.95;;
35442;SDS011;21561;55.654;37.592;2022-08-21T02:28:59;50.22;;;28.58;;
35442;SDS011;21561;55.654;37.592;2022-08-21T02:31:27;49.10;;;28.73;;
35442;SDS011;21561;55.654;37.592;2022-08-21T02:33:54;53.45;;;30.08;;
35442;SDS011;21561;55.654;37.592;2022-08-21T02:36:21;51.63;;;28.83;;
35442;SDS011;21561;55.654;37.592;2022-08-21T02:38:48;48.05;;;27.30;;
35442;SDS011;21561;55.654;37.592;2022-08-21T02:41:17;51.40;;;28.70;;
35442;SDS011;21561;55.654;37.592;2022-08-21T02:43:45;51.53;;;28.75;;
35442;SDS011;21561;55.654;37.592;2022-08-21T02:46:13;48.42;;;29.00;;
35442;SDS011;21561;55.654;37.592;2022-08-21T02:48:42;52.35;;;27.58;;
35442;SDS011;21561;55.654;37.592;2022-08-21T02:51:12;45.17;;;28.13;;
35442;SDS011;21561;55.654;37.592;2022-08-21T02:53:41;46.08;;;27.50;;
35442;SDS011;21561;55.654;37.592;2022-08-21T02:56:09;44.58;;;27.13;;
35442;SDS011;21561;55.654;37.592;2022-08-21T02:58:39;47.08;;;26.80;;
35442;SDS011;21561;55.654;37.592;2022-08-21T03:01:08;52.35;;;28.33;;
35442;SDS011;21561;55.654;37.592;2022-08-21T03:03:37;45.13;;;27.10;;
35442;SDS011;21561;55.654;37.592;2022-08-21T03:06:05;48.75;;;26.42;;
35442;SDS011;21561;55.654;37.592;2022-08-21T03:08:34;52.38;;;27.75;;
35442;SDS011;21561;55.654;37.592;2022-08-21T03:11:02;47.53;;;26.70;;
35442;SDS011;21561;55.654;37.592;2022-08-21T03:13:31;50.15;;;27.13;;
35442;SDS011;21561;55.654;37.592;2022-08-21T03:15:59;46.58;;;26.35;;
35442;SDS011;21561;55.654;37.592;2022-08-21T03:18:26;45.40;;;27.33;;
35442;SDS011;21561;55.654;37.592;2022-08-21T03:20:53;47.20;;;26.88;;
35442;SDS011;21561;55.654;37.592;2022-08-21T03:23:20;45.28;;;26.25;;
35442;SDS011;21561;55.654;37.592;2022-08-21T03:25:47;46.33;;;27.13;;
35442;SDS011;21561;55.654;37.592;2022-08-21T03:28:17;48.33;;;26.45;;
35442;SDS011;21561;55.654;37.592;2022-08-21T03:30:46;45.95;;;25.40;;
35442;SDS011;21561;55.654;37.592;2022-08-21T03:33:16;41.80;;;25.50;;
35442;SDS011;21561;55.654;37.592;2022-08-21T03:35:52;45.30;;;25.75;;
35442;SDS011;21561;55.654;37.592;2022-08-21T03:38:27;47.75;;;25.83;;
35442;SDS011;21561;55.654;37.592;2022-08-21T03:40:57;47.65;;;27.02;;
35442;SDS011;21561;55.654;37.592;2022-08-21T03:43:24;45.28;;;25.65;;
35442;SDS011;21561;55.654;37.592;2022-08-21T03:45:51;49.25;;;25.90;;
35442;SDS011;21561;55.654;37.592;2022-08-21T03:48:18;46.97;;;26.92;;
35442;SDS011;21561;55.654;37.592;2022-08-21T03:50:45;51.38;;;26.83;;
35442;SDS011;21561;55.654;37.592;2022-08-21T03:53:14;47.90;;;26.77;;
35442;SDS011;21561;55.654;37.592;2022-08-21T03:55:43;41.90;;;24.80;;
35442;SDS011;21561;55.654;37.592;2022-08-21T03:58:13;49.17;;;26.55;;
35442;SDS011;21561;55.654;37.592;2022-08-21T04:00:46;44.70;;;26.92;;
35442;SDS011;21561;55.654;37.592;2022-08-21T04:05:42;44.03;;;25.50;;
35442;SDS011;21561;55.654;37.592;2022-08-21T04:08:12;44.47;;;25.15;;
35442;SDS011;21561;55.654;37.592;2022-08-21T04:10:41;46.30;;;25.65;;
35442;SDS011;21561;55.654;37.592;2022-08-21T04:13:10;45.60;;;26.92;;
35442;SDS011;21561;55.654;37.592;2022-08-21T04:15:37;48.05;;;27.77;;
35442;SDS011;21561;55.654;37.592;2022-08-21T04:18:04;53.25;;;27.85;;
35442;SDS011;21561;55.654;37.592;2022-08-21T04:20:32;44.65;;;27.27;;
35442;SDS011;21561;55.654;37.592;2022-08-21T04:23:00;46.15;;;28.08;;
35442;SDS011;21561;55.654;37.592;2022-08-21T04:25:28;45.40;;;26.30;;
35442;SDS011;21561;55.654;37.592;2022-08-21T04:27:55;46.22;;;27.02;;
35442;SDS011;21561;55.654;37.592;2022-08-21T04:30:22;47.72;;;29.02;;
35442;SDS011;21561;55.654;37.592;2022-08-21T04:32:55;42.65;;;26.80;;
35442;SDS011;21561;55.654;37.592;2022-08-21T04:35:24;51.13;;;28.38;;
35442;SDS011;21561;55.654;37.592;2022-08-21T04:37:53;45.90;;;27.98;;
35442;SDS011;21561;55.654;37.592;2022-08-21T04:40:21;47.50;;;28.98;;
35442;SDS011;21561;55.654;37.592;2022-08-21T04:42:51;47.67;;;29.45;;
35442;SDS011;21561;55.654;37.592;2022-08-21T04:45:21;49.60;;;28.60;;
35442;SDS011;21561;55.654;37.592;2022-08-21T04:47:52;51.00;;;29.67;;
35442;SDS011;21561;55.654;37.592;2022-08-21T04:50:21;49.05;;;29.00;;
35442;SDS011;21561;55.654;37.592;2022-08-21T04:52:51;47.70;;;29.48;;
35442;SDS011;21561;55.654;37.592;2022-08-21T04:55:19;51.17;;;31.08;;
35442;SDS011;21561;55.654;37.592;2022-08-21T04:57:46;50.50;;;30.98;;
35442;SDS011;21561;55.654;37.592;2022-08-21T05:00:15;55.83;;;31.70;;
35442;SDS011;21561;55.654;37.592;2022-08-21T05:02:45;55.60;;;34.00;;
35442;SDS011;21561;55.654;37.592;2022-08-21T05:05:15;58.42;;;32.60;;
35442;SDS011;21561;55.654;37.592;2022-08-21T05:07:42;56.08;;;32.80;;
35442;SDS011;21561;55.654;37.592;2022-08-21T05:10:11;63.88;;;36.40;;
35442;SDS011;21561;55.654;37.592;2022-08-21T05:12:40;59.70;;;35.45;;
35442;SDS011;21561;55.654;37.592;2022-08-21T05:15:10;53.97;;;33.83;;
35442;SDS011;21561;55.654;37.592;2022-08-21T05:17:40;57.53;;;35.27;;
35442;SDS011;21561;55.654;37.592;2022-08-21T05:20:11;57.75;;;34.65;;
35442;SDS011;21561;55.654;37.592;2022-08-21T05:22:39;57.22;;;34.88;;
35442;SDS011;21561;55.654;37.592;2022-08-21T05:25:07;58.00;;;36.42;;
35442;SDS011;21561;55.654;37.592;2022-08-21T05:27:36;59.28;;;36.22;;
35442;SDS011;21561;55.654;37.592;2022-08-21T05:30:08;58.95;;;35.88;;
35442;SDS011;21561;55.654;37.592;2022-08-21T05:32:36;58.65;;;36.90;;
35442;SDS011;21561;55.654;37.592;2022-08-21T05:35:04;61.15;;;36.17;;
35442;SDS011;21561;55.654;37.592;2022-08-21T05:37:33;59.83;;;35.70;;
35442;SDS011;21561;55.654;37.592;2022-08-21T05:40:00;52.60;;;35.22;;
35442;SDS011;21561;55.654;37.592;2022-08-21T05:42:46;54.00;;;34.92;;
35442;SDS011;21561;55.654;37.592;2022-08-21T05:45:24;62.20;;;36.00;;
35442;SDS011;21561;55.654;37.592;2022-08-21T05:50:37;53.03;;;33.55;;
35442;SDS011;21561;55.654;37.592;2022-08-21T05:53:05;54.67;;;34.75;;
35442;SDS011;21561;55.654;37.592;2022-08-21T05:55:34;53.83;;;33.50;;
35442;SDS011;21561;55.654;37.592;2022-08-21T05:58:10;55.58;;;33.33;;
35442;SDS011;21561;55.654;37.592;2022-08-21T06:00:38;56.97;;;34.40;;
35442;SDS011;21561;55.654;37.592;2022-08-21T06:03:09;52.03;;;33.83;;
35442;SDS011;21561;55.654;37.592;2022-08-21T06:05:43;54.63;;;33.58;;
35442;SDS011;21561;55.654;37.592;2022-08-21T06:08:10;52.72;;;33.63;;
35442;SDS011;21561;55.654;37.592;2022-08-21T06:10:38;51.67;;;32.88;;
35442;SDS011;21561;55.654;37.592;2022-08-21T06:13:05;53.65;;;33.17;;
35442;SDS011;21561;55.654;37.592;2022-08-21T06:15:32;55.80;;;32.50;;
35442;SDS011;21561;55.654;37.592;2022-08-21T06:17:59;52.00;;;33.10;;
35442;SDS011;21561;55.654;37.592;2022-08-21T06:20:26;53.10;;;32.78;;
35442;SDS011;21561;55.654;37.592;2022-08-21T06:22:53;56.67;;;31.98;;
35442;SDS011;21561;55.654;37.592;2022-08-21T06:25:20;53.75;;;32.15;;
35442;SDS011;21561;55.654;37.592;2022-08-21T06:27:49;54.65;;;32.80;;
35442;SDS011;21561;55.654;37.592;2022-08-21T06:30:16;55.80;;;32.45;;
35442;SDS011;21561;55.654;37.592;2022-08-21T06:32:43;49.47;;;30.88;;
35442;SDS011;21561;55.654;37.592;2022-08-21T06:35:10;47.85;;;30.15;;
35442;SDS011;21561;55.654;37.592;2022-08-21T06:37:37;52.88;;;31.08;;
35442;SDS011;21561;55.654;37.592;2022-08-21T06:40:04;53.40;;;33.53;;
35442;SDS011;21561;55.654;37.592;2022-08-21T06:42:38;48.75;;;31.65;;
35442;SDS011;21561;55.654;37.592;2022-08-21T06:45:08;51.25;;;30.65;;
35442;SDS011;21561;55.654;37.592;2022-08-21T06:47:36;52.45;;;30.83;;
35442;SDS011;21561;55.654;37.592;2022-08-21T06:50:03;54.17;;;32.20;;
35442;SDS011;21561;55.654;37.592;2022-08-21T06:52:34;59.97;;;31.20;;
35442;SDS011;21561;55.654;37.592;2022-08-21T06:55:03;56.75;;;30.85;;
35442;SDS011;21561;55.654;37.592;2022-08-21T06:57:32;59.80;;;33.50;;
35442;SDS011;21561;55.654;37.592;2022-08-21T06:59:59;55.78;;;30.95;;
35442;SDS011;21561;55.654;37.592;2022-08-21T07:02:29;45.88;;;29.25;;
35442;SDS011;21561;55.654;37.592;2022-08-21T07:04:56;48.47;;;27.83;;
35442;SDS011;21561;55.654;37.592;2022-08-21T07:07:24;48.63;;;29.17;;
35442;SDS011;21561;55.654;37.592;2022-08-21T07:09:51;51.35;;;29.80;;
35442;SDS011;21561;55.654;37.592;2022-08-21T07:12:18;48.65;;;29.92;;
35442;SDS011;21561;55.654;37.592;2022-08-21T07:14:46;53.33;;;30.75;;
35442;SDS011;21561;55.654;37.592;2022-08-21T07:17:13;53.20;;;31.02;;
35442;SDS011;21561;55.654;37.592;2022-08-21T07:19:40;46.90;;;29.30;;
35442;SDS011;21561;55.654;37.592;2022-08-21T07:22:06;52.33;;;28.73;;
35442;SDS011;21561;55.654;37.592;2022-08-21T07:24:33;44.83;;;27.65;;
35442;SDS011;21561;55.654;37.592;2022-08-21T07:27:00;48.63;;;27.60;;
35442;SDS011;21561;55.654;37.592;2022-08-21T07:29:29;48.85;;;27.40;;
35442;SDS011;21561;55.654;37.592;2022-08-21T07:31:57;48.10;;;27.45;;
35442;SDS011;21561;55.654;37.592;2022-08-21T07:34:23;50.55;;;27.95;;
35442;SDS011;21561;55.654;37.592;2022-08-21T07:36:50;44.65;;;28.33;;
35442;SDS011;21561;55.654;37.592;2022-08-21T07:39:18;45.00;;;26.05;;
35442;SDS011;21561;55.654;37.592;2022-08-21T07:41:45;47.13;;;28.08;;
35442;SDS011;21561;55.654;37.592;2022-08-21T07:44:12;49.78;;;27.98;;
35442;SDS011;21561;55.654;37.592;2022-08-21T07:46:39;47.72;;;27.65;;
35442;SDS011;21561;55.654;37.592;2022-08-21T07:49:06;50.33;;;27.10;;
35442;SDS011;21561;55.654;37.592;2022-08-21T07:51:33;44.92;;;26.60;;
35442;SDS011;21561;55.654;37.592;2022-08-21T07:54:03;43.85;;;25.75;;
35442;SDS011;21561;55.654;37.592;2022-08-21T07:56:30;45.55;;;25.55;;
35442;SDS011;21561;55.654;37.592;2022-08-21T07:58:58;44.28;;;24.77;;
35442;SDS011;21561;55.654;37.592;2022-08-21T08:01:25;45.38;;;25.60;;
35442;SDS011;21561;55.654;37.592;2022-08-21T08:03:52;40.35;;;23.30;;
35442;SDS011;21561;55.654;37.592;2022-08-21T08:06:19;48.30;;;23.98;;
35442;SDS011;21561;55.654;37.592;2022-08-21T08:08:46;41.28;;;23.80;;
35442;SDS011;21561;55.654;37.592;2022-08-21T08:11:13;40.20;;;22.98;;
35442;SDS011;21561;55.654;37.592;2022-08-21T08:13:42;44.90;;;23.75;;
35442;SDS011;21561;55.654;37.592;2022-08-21T08:16:14;43.03;;;22.48;;
35442;SDS011;21561;55.654;37.592;2022-08-21T08:18:42;40.55;;;23.45;;
35442;SDS011;21561;55.654;37.592;2022-08-21T08:21:11;42.42;;;23.52;;
35442;SDS011;21561;55.654;37.592;2022-08-21T08:23:39;41.47;;;23.85;;
35442;SDS011;21561;55.654;37.592;2022-08-21T08:26:06;42.78;;;24.08;;
35442;SDS011;21561;55.654;37.592;2022-08-21T08:28:32;44.25;;;25.63;;
35442;SDS011;21561;55.654;37.592;2022-08-21T08:31:00;44.60;;;26.48;;
35442;SDS011;21561;55.654;37.592;2022-08-21T08:33:27;42.78;;;24.90;;
35442;SDS011;21561;55.654;37.592;2022-08-21T08:35:54;41.70;;;23.35;;
35442;SDS011;21561;55.654;37.592;2022-08-21T08:38:30;40.60;;;23.50;;
35442;SDS011;21561;55.654;37.592;2022-08-21T08:41:06;42.25;;;22.45;;
35442;SDS011;21561;55.654;37.592;2022-08-21T08:43:43;40.20;;;22.45;;
35442;SDS011;21561;55.654;37.592;2022-08-21T08:46:16;40.22;;;22.65;;
35442;SDS011;21561;55.654;37.592;2022-08-21T08:48:52;39.70;;;22.13;;
35442;SDS011;21561;55.654;37.592;2022-08-21T08:54:14;46.50;;;21.60;;
35442;SDS011;21561;55.654;37.592;2022-08-21T08:56:45;35.03;;;19.50;;
35442;SDS011;21561;55.654;37.592;2022-08-21T09:01:43;32.47;;;18.33;;
35442;SDS011;21561;55.654;37.592;2022-08-21T09:04:11;34.78;;;18.10;;
35442;SDS011;21561;55.654;37.592;2022-08-21T09:17:17;35.42;;;18.65;;
35442;SDS011;21561;55.654;37.592;2022-08-21T09:25:23;34.25;;;17.77;;
35442;SDS011;21561;55.654;37.592;2022-08-21T09:27:52;32.92;;;17.00;;
35442;SDS011;21561;55.654;37.592;2022-08-21T09:30:23;34.90;;;16.40;;
35442;SDS011;21561;55.654;37.592;2022-08-21T09:32:55;33.08;;;16.23;;
35442;SDS011;21561;55.654;37.592;2022-08-21T09:35:23;33.13;;;15.88;;
35442;SDS011;21561;55.654;37.592;2022-08-21T09:37:55;27.52;;;14.50;;
35442;SDS011;21561;55.654;37.592;2022-08-21T09:43:15;27.42;;;11.80;;
35442;SDS011;21561;55.654;37.592;2022-08-21T09:45:45;22.63;;;10.65;;
35442;SDS011;21561;55.654;37.592;2022-08-21T09:48:23;24.55;;;11.70;;
35442;SDS011;21561;55.654;37.592;2022-08-21T09:51:09;27.15;;;11.02;;
35442;SDS011;21561;55.654;37.592;2022-08-21T09:53:48;26.92;;;10.65;;
35442;SDS011;21561;55.654;37.592;2022-08-21T09:57:00;20.95;;;9.35;;
35442;SDS011;21561;55.654;37.592;2022-08-21T09:59:46;22.25;;;8.25;;
35442;SDS011;21561;55.654;37.592;2022-08-21T10:04:54;19.90;;;8.00;;
35442;SDS011;21561;55.654;37.592;2022-08-21T10:07:24;22.40;;;8.97;;
35442;SDS011;21561;55.654;37.592;2022-08-21T10:10:00;23.20;;;9.23;;
35442;SDS011;21561;55.654;37.592;2022-08-21T10:12:44;27.88;;;9.30;;
35442;SDS011;21561;55.654;37.592;2022-08-21T10:20:39;23.03;;;9.93;;
35442;SDS011;21561;55.654;37.592;2022-08-21T10:28:44;24.95;;;10.27;;
35442;SDS011;21561;55.654;37.592;2022-08-21T10:31:50;25.55;;;9.68;;
35442;SDS011;21561;55.654;37.592;2022-08-21T10:37:55;22.00;;;8.65;;
35442;SDS011;21561;55.654;37.592;2022-08-21T10:40:15;23.05;;;9.05;;
35442;SDS011;21561;55.654;37.592;2022-08-21T10:45:27;20.48;;;7.13;;
35442;SDS011;21561;55.654;37.592;2022-08-21T10:51:14;19.10;;;6.30;;
35442;SDS011;21561;55.654;37.592;2022-08-21T10:56:51;19.55;;;4.90;;
35442;SDS011;21561;55.654;37.592;2022-08-21T11:00:05;14.25;;;4.85;;
35442;SDS011;21561;55.654;37.592;2022-08-21T11:02:40;18.25;;;4.82;;
35442;SDS011;21561;55.654;37.592;2022-08-21T11:05:29;19.63;;;5.22;;
35442;SDS011;21561;55.654;37.592;2022-08-21T11:08:08;14.50;;;4.22;;
35442;SDS011;21561;55.654;37.592;2022-08-21T11:10:44;18.40;;;4.22;;
35442;SDS011;21561;55.654;37.592;2022-08-21T11:13:35;20.25;;;4.18;;
35442;SDS011;21561;55.654;37.592;2022-08-21T11:16:21;18.08;;;4.10;;
35442;SDS011;21561;55.654;37.592;2022-08-21T11:18:58;17.17;;;3.78;;
35442;SDS011;21561;55.654;37.592;2022-08-21T11:21:41;14.57;;;4.28;;
35442;SDS011;21561;55.654;37.592;2022-08-21T11:27:23;23.45;;;4.80;;
35442;SDS011;21561;55.654;37.592;2022-08-21T11:30:06;20.65;;;5.30;;
35442;SDS011;21561;55.654;37.592;2022-08-21T11:32:51;18.92;;;5.18;;
35442;SDS011;21561;55.654;37.592;2022-08-21T11:35:50;17.63;;;5.63;;
35442;SDS011;21561;55.654;37.592;2022-08-21T11:38:42;27.33;;;6.22;;
35442;SDS011;21561;55.654;37.592;2022-08-21T11:41:24;20.83;;;7.18;;
35442;SDS011;21561;55.654;37.592;2022-08-21T11:44:17;19.42;;;6.97;;
35442;SDS011;21561;55.654;37.592;2022-08-21T11:47:05;26.15;;;7.95;;
35442;SDS011;21561;55.654;37.592;2022-08-21T11:52:48;22.17;;;7.68;;
35442;SDS011;21561;55.654;37.592;2022-08-21T11:55:28;24.90;;;8.30;;
35442;SDS011;21561;55.654;37.592;2022-08-21T11:57:59;26.67;;;8.93;;
35442;SDS011;21561;55.654;37.592;2022-08-21T12:00:36;22.88;;;9.55;;
35442;SDS011;21561;55.654;37.592;2022-08-21T12:03:12;27.73;;;10.80;;
35442;SDS011;21561;55.654;37.592;2022-08-21T12:05:53;28.15;;;10.93;;
35442;SDS011;21561;55.654;37.592;2022-08-21T12:08:33;24.98;;;11.85;;
35442;SDS011;21561;55.654;37.592;2022-08-21T12:11:45;32.85;;;11.98;;
35442;SDS011;21561;55.654;37.592;2022-08-21T12:14:11;31.02;;;11.40;;
35442;SDS011;21561;55.654;37.592;2022-08-21T12:16:41;27.73;;;11.27;;
35442;SDS011;21561;55.654;37.592;2022-08-21T12:19:11;24.80;;;8.93;;
35442;SDS011;21561;55.654;37.592;2022-08-21T12:27:14;18.35;;;3.65;;
35442;SDS011;21561;55.654;37.592;2022-08-21T12:35:18;19.23;;;3.20;;
35442;SDS011;21561;55.654;37.592;2022-08-21T12:38:02;16.08;;;3.38;;
35442;SDS011;21561;55.654;37.592;2022-08-21T12:40:40;14.77;;;3.00;;
35442;SDS011;21561;55.654;37.592;2022-08-21T12:43:15;19.65;;;3.00;;
35442;SDS011;21561;55.654;37.592;2022-08-21T12:45:48;23.58;;;3.25;;
35442;SDS011;21561;55.654;37.592;2022-08-21T12:50:56;12.05;;;3.00;;
35442;SDS011;21561;55.654;37.592;2022-08-21T12:53:42;19.65;;;3.10;;
35442;SDS011;21561;55.654;37.592;2022-08-21T12:56:16;19.25;;;3.78;;
35442;SDS011;21561;55.654;37.592;2022-08-21T12:58:55;14.48;;;3.10;;
35442;SDS011;21561;55.654;37.592;2022-08-21T13:01:35;22.05;;;3.58;;
35442;SDS011;21561;55.654;37.592;2022-08-21T13:04:12;22.42;;;3.40;;
35442;SDS011;21561;55.654;37.592;2022-08-21T13:06:45;19.40;;;3.40;;
35442;SDS011;21561;55.654;37.592;2022-08-21T13:09:16;17.02;;;3.75;;
35442;SDS011;21561;55.654;37.592;2022-08-21T13:11:46;20.93;;;4.20;;
35442;SDS011;21561;55.654;37.592;2022-08-21T13:14:31;29.52;;;4.55;;
35442;SDS011;21561;55.654;37.592;2022-08-21T13:17:11;21.05;;;4.60;;
35442;SDS011;21561;55.654;37.592;2022-08-21T13:19:55;19.77;;;4.53;;
35442;SDS011;21561;55.654;37.592;2022-08-21T13:22:26;19.70;;;5.22;;
35442;SDS011;21561;55.654;37.592;2022-08-21T13:25:00;19.58;;;5.00;;
35442;SDS011;21561;55.654;37.592;2022-08-21T13:27:33;25.50;;;5.03;;
35442;SDS011;21561;55.654;37.592;2022-08-21T13:30:03;23.95;;;4.90;;
35442;SDS011;21561;55.654;37.592;2022-08-21T13:32:43;22.30;;;5.03;;
35442;SDS011;21561;55.654;37.592;2022-08-21T13:35:20;18.45;;;4.88;;
35442;SDS011;21561;55.654;37.592;2022-08-21T13:37:49;16.45;;;5.38;;
35442;SDS011;21561;55.654;37.592;2022-08-21T13:40:19;29.63;;;4.68;;
35442;SDS011;21561;55.654;37.592;2022-08-21T13:42:50;19.45;;;4.40;;
35442;SDS011;21561;55.654;37.592;2022-08-21T13:45:30;22.55;;;5.15;;
35442;SDS011;21561;55.654;37.592;2022-08-21T13:48:02;18.10;;;4.20;;
35442;SDS011;21561;55.654;37.592;2022-08-21T13:50:33;26.77;;;5.20;;
35442;SDS011;21561;55.654;37.592;2022-08-21T13:53:05;20.63;;;4.90;;
35442;SDS011;21561;55.654;37.592;2022-08-21T13:58:11;20.85;;;4.30;;
35442;SDS011;21561;55.654;37.592;2022-08-21T14:00:48;25.25;;;4.97;;
35442;SDS011;21561;55.654;37.592;2022-08-21T14:03:51;17.85;;;4.38;;
35442;SDS011;21561;55.654;37.592;2022-08-21T14:06:13;19.65;;;4.50;;
35442;SDS011;21561;55.654;37.592;2022-08-21T14:08:55;26.20;;;5.28;;
35442;SDS011;21561;55.654;37.592;2022-08-21T14:11:25;23.65;;;5.05;;
35442;SDS011;21561;55.654;37.592;2022-08-21T14:13:59;21.92;;;5.10;;
35442;SDS011;21561;55.654;37.592;2022-08-21T14:16:29;26.10;;;6.40;;
35442;SDS011;21561;55.654;37.592;2022-08-21T14:19:09;23.15;;;7.45;;
35442;SDS011;21561;55.654;37.592;2022-08-21T14:21:57;28.08;;;8.13;;
35442;SDS011;21561;55.654;37.592;2022-08-21T14:24:28;27.48;;;8.18;;
35442;SDS011;21561;55.654;37.592;2022-08-21T14:27:02;26.80;;;7.78;;
35442;SDS011;21561;55.654;37.592;2022-08-21T14:29:37;22.20;;;7.82;;
35442;SDS011;21561;55.654;37.592;2022-08-21T14:34:50;21.02;;;7.05;;
35442;SDS011;21561;55.654;37.592;2022-08-21T14:37:19;21.08;;;7.00;;
35442;SDS011;21561;55.654;37.592;2022-08-21T14:39:47;20.75;;;6.78;;
35442;SDS011;21561;55.654;37.592;2022-08-21T14:42:13;22.42;;;6.40;;
35442;SDS011;21561;55.654;37.592;2022-08-21T14:44:40;23.33;;;6.20;;
35442;SDS011;21561;55.654;37.592;2022-08-21T14:47:08;17.85;;;5.45;;
35442;SDS011;21561;55.654;37.592;2022-08-21T14:49:35;22.52;;;6.43;;
35442;SDS011;21561;55.654;37.592;2022-08-21T14:52:02;25.33;;;6.03;;
35442;SDS011;21561;55.654;37.592;2022-08-21T14:54:30;20.65;;;5.97;;
35442;SDS011;21561;55.654;37.592;2022-08-21T14:56:59;19.10;;;4.85;;
35442;SDS011;21561;55.654;37.592;2022-08-21T14:59:32;18.00;;;4.78;;
35442;SDS011;21561;55.654;37.592;2022-08-21T15:01:59;21.88;;;4.72;;
35442;SDS011;21561;55.654;37.592;2022-08-21T15:04:27;18.10;;;5.15;;
35442;SDS011;21561;55.654;37.592;2022-08-21T15:06:54;14.63;;;4.20;;
35442;SDS011;21561;55.654;37.592;2022-08-21T15:09:21;20.38;;;4.43;;
35442;SDS011;21561;55.654;37.592;2022-08-21T15:11:48;15.57;;;3.90;;
35442;SDS011;21561;55.654;37.592;2022-08-21T15:14:23;15.82;;;3.50;;
35442;SDS011;21561;55.654;37.592;2022-08-21T15:16:52;18.77;;;3.67;;
35442;SDS011;21561;55.654;37.592;2022-08-21T15:19:20;21.42;;;4.13;;
35442;SDS011;21561;55.654;37.592;2022-08-21T15:21:46;19.13;;;3.30;;
35442;SDS011;21561;55.654;37.592;2022-08-21T15:24:14;13.77;;;3.08;;
35442;SDS011;21561;55.654;37.592;2022-08-21T15:26:41;14.90;;;3.28;;
35442;SDS011;21561;55.654;37.592;2022-08-21T15:29:09;14.02;;;3.30;;
35442;SDS011;21561;55.654;37.592;2022-08-21T15:31:37;15.98;;;3.20;;
35442;SDS011;21561;55.654;37.592;2022-08-21T15:34:20;13.68;;;2.80;;
35442;SDS011;21561;55.654;37.592;2022-08-21T15:36:53;12.07;;;3.10;;
35442;SDS011;21561;55.654;37.592;2022-08-21T15:39:23;14.93;;;2.75;;
35442;SDS011;21561;55.654;37.592;2022-08-21T15:41:57;12.38;;;2.67;;
35442;SDS011;21561;55.654;37.592;2022-08-21T15:44:28;15.55;;;2.50;;
35442;SDS011;21561;55.654;37.592;2022-08-21T15:46:55;12.23;;;2.65;;
35442;SDS011;21561;55.654;37.592;2022-08-21T15:49:23;17.58;;;2.70;;
35442;SDS011;21561;55.654;37.592;2022-08-21T15:51:50;13.40;;;2.50;;
35442;SDS011;21561;55.654;37.592;2022-08-21T15:54:17;14.40;;;2.60;;
35442;SDS011;21561;55.654;37.592;2022-08-21T15:56:45;17.58;;;2.15;;
35442;SDS011;21561;55.654;37.592;2022-08-21T15:59:18;9.68;;;2.30;;
35442;SDS011;21561;55.654;37.592;2022-08-21T16:01:49;13.48;;;2.83;;
35442;SDS011;21561;55.654;37.592;2022-08-21T16:04:24;12.25;;;2.63;;